New Carlisle, IN (46552)

1:52 PM CDT on June 23, 2017 (GMT -0500)
Bendix Woods County Park | | Change Station

Elev 835 ft 41.66 °N, 86.51 °W | Updated 20 seconds ago

Partly Cloudy
Partly Cloudy
72.0 °F
Feels Like 75 °F
N
3.0
Wind Variable Wind from North
Gusts 5.0 mph

Today
High -- | Low -- °F
--% Chance of Precip.
Yesterday
High -- | Low -- °F
Precip. -- in
Pressure 29.70 in
Visibility 10.0 miles
Clouds Mostly Cloudy 1700 ft
Heat Index 75 °F
Dew Point 61 °F
Humidity 69%
Rainfall 0.11 in
Snow Depth Not available.
5:12 AM 8:24 PM
Waning Crescent, 0% visible
METAR KSBN 231754Z 31010G15KT 10SM BKN017 21/16 A2972 RMK AO2 SLP058 60007 T02060161 10206 20183 53012
Pressure 29.70 in
Visibility 10.0 miles
Clouds Mostly Cloudy 1700 ft
Heat Index 75 °F
Dew Point 61 °F
Humidity 69%
Rainfall 0.11 in
Snow Depth Not available.
5:12 AM 8:24 PM
Waning Crescent, 0% visible
METAR KSBN 231754Z 31010G15KT 10SM BKN017 21/16 A2972 RMK AO2 SLP058 60007 T02060161 10206 20183 53012

Get Severe Weather Alerts

Thanks for signing up!

Be on the lookout for a verification email in your inbox.

You'll start receiving the daily forecast at 6 AM.

×

10-Day Weather Forecast

Almanac

Astronomy

Jun. 23, 2017 Rise Set
Actual Time
Civil Twilight
Nautical Twilight
Astronomical Twilight
Moon
Length of Visible Light
Length of Day
Tomorrow will be .
, % of the Moon is Illuminated

Today's Extremes

State Highs State Lows

Community

WunderPhotos

Category 6

Welcome to Category 6. This is the collective home for Weather Underground's featured writeups by Dr. Jeff Masters (right), Bob Henson (left), Chris Burt, and other regular contributors.

Nearby

Air Quality

  Air Quality AQ Index Pollutant
Not available.

Snow Depth

Station Depth Elevation

Earthquake Activity

City Distance Mag. Time & Date
Minimum magnitude displayed is 2.5.

Coastal Water Temperatures

Place Temperature

Stations

Nearby Weather Stations

Station Location Temp. Windchill Dew Point Humidity Wind Precip. Elev Updated Type
                   

Watches & Warnings

There are currently no watches in effect.